Time,TemperatureF,DewpointF,PressureIn,WindDirection,WindDirectionDegrees,WindSpeedMPH,WindSpeedGustMPH,Humidity,HourlyPrecipIn,Conditions,Clouds,dailyrainin,SoftwareType,DateUTC
2013-04-18 00:00:00,43.0,36.0,30.27,NNE,20,5.0,-999.0,74,-99.99,,,-99.99,,2013-04-18 00:00:00,
2013-04-18 00:32:00,43.0,36.0,30.27,NNE,20,5.0,-999.0,74,-99.99,,,-99.99,,2013-04-18 00:32:00,
2013-04-18 00:42:00,43.0,36.0,30.27,NNE,20,5.0,-999.0,74,-99.99,,,-99.99,,2013-04-18 00:42:00,
2013-04-18 00:51:00,43.0,36.0,30.27,NNE,20,5.0,-999.0,74,-99.99,,,-99.99,,2013-04-18 00:51:00,
2013-04-18 01:00:00,44.0,36.0,30.27,NNE,30,3.0,-999.0,73,-99.99,,,-99.99,,2013-04-18 01:00:00,
2013-04-18 01:21:00,44.0,36.0,30.27,NNE,30,3.0,-999.0,73,-99.99,,,-99.99,,2013-04-18 01:21:00,
2013-04-18 01:32:00,44.0,36.0,30.27,NNE,30,3.0,-999.0,73,-99.99,,,-99.99,,2013-04-18 01:32:00,
2013-04-18 01:41:00,44.0,36.0,30.27,NNE,30,3.0,-999.0,73,-99.99,,,-99.99,,2013-04-18 01:41:00,
2013-04-18 01:52:00,44.0,36.0,30.27,NNE,30,3.0,-999.0,73,-99.99,,,-99.99,,2013-04-18 01:52:00,
2013-04-18 02:00:00,43.0,36.0,30.24,NNE,20,6.0,-999.0,78,-99.99,,,-99.99,,2013-04-18 02:00:00,
2013-04-18 02:22:00,43.0,36.0,30.24,NNE,20,6.0,-999.0,78,-99.99,,,-99.99,,2013-04-18 02:22:00,
2013-04-18 02:31:00,43.0,36.0,30.24,NNE,20,6.0,-999.0,78,-99.99,,,-99.99,,2013-04-18 02:31:00,
2013-04-18 02:41:00,43.0,36.0,30.24,NNE,20,6.0,-999.0,78,-99.99,,,-99.99,,2013-04-18 02:41:00,
2013-04-18 02:51:00,43.0,36.0,30.24,NNE,20,6.0,-999.0,78,-99.99,,,-99.99,,2013-04-18 02:51:00,
2013-04-18 03:00:00,46.0,33.0,30.27,North,360,11.0,-999.0,61,-99.99,,,-99.99,,2013-04-18 03:00:00,
2013-04-18 03:21:00,46.0,33.0,30.27,North,360,11.0,-999.0,61,-99.99,,,-99.99,,2013-04-18 03:21:00,
2013-04-18 03:33:00,46.0,33.0,30.27,North,360,11.0,-999.0,61,-99.99,,,-99.99,,2013-04-18 03:33:00,
2013-04-18 03:42:00,46.0,33.0,30.27,North,360,11.0,-999.0,61,-99.99,,,-99.99,,2013-04-18 03:42:00,
2013-04-18 03:53:00,46.0,33.0,30.27,North,360,11.0,-999.0,61,-99.99,,,-99.99,,2013-04-18 03:53:00,
2013-04-18 04:00:00,45.0,36.0,30.25,NNE,30,7.0,-999.0,71,-99.99,,,-99.99,,2013-04-18 04:00:00,
2013-04-18 04:23:00,45.0,36.0,30.25,NNE,30,7.0,-999.0,71,-99.99,,,-99.99,,2013-04-18 04:23:00,
2013-04-18 04:32:00,45.0,36.0,30.25,NNE,30,7.0,-999.0,71,-99.99,,,-99.99,,2013-04-18 04:32:00,
2013-04-18 04:42:00,45.0,36.0,30.25,NNE,30,7.0,-999.0,71,-99.99,,,-99.99,,2013-04-18 04:42:00,
2013-04-18 04:52:00,45.0,36.0,30.25,NNE,30,7.0,-999.0,71,-99.99,,,-99.99,,2013-04-18 04:52:00,
2013-04-18 05:00:00,42.0,37.0,30.19,NE,50,2.0,-999.0,82,-99.99,,,-99.99,,2013-04-18 05:00:00,
2013-04-18 05:21:00,42.0,37.0,30.19,NE,50,2.0,-999.0,82,-99.99,,,-99.99,,2013-04-18 05:21:00,
2013-04-18 05:32:00,42.0,37.0,30.19,NE,50,2.0,-999.0,82,-99.99,,,-99.99,,2013-04-18 05:32:00,
2013-04-18 05:42:00,42.0,37.0,30.19,NE,50,2.0,-999.0,82,-99.99,,,-99.99,,2013-04-18 05:42:00,
2013-04-18 05:52:00,42.0,37.0,30.19,NE,50,2.0,-999.0,82,-99.99,,,-99.99,,2013-04-18 05:52:00,
2013-04-18 06:00:00,42.0,37.0,30.19,NNE,30,8.0,-999.0,82,-99.99,,,-99.99,,2013-04-18 06:00:00,
2013-04-18 06:21:00,42.0,37.0,30.19,NNE,30,8.0,-999.0,82,-99.99,,,-99.99,,2013-04-18 06:21:00,
2013-04-18 06:31:00,42.0,37.0,30.19,NNE,30,8.0,-999.0,82,-99.99,,,-99.99,,2013-04-18 06:31:00,
2013-04-18 06:41:00,42.0,37.0,30.19,NNE,30,8.0,-999.0,82,-99.99,,,-99.99,,2013-04-18 06:41:00,
2013-04-18 06:51:00,42.0,37.0,30.19,NNE,30,8.0,-999.0,82,-99.99,,,-99.99,,2013-04-18 06:51:00,
2013-04-18 07:00:00,42.0,37.0,30.14,NNE,20,3.0,-999.0,82,-99.99,,,-99.99,,2013-04-18 07:00:00,
2013-04-18 07:21:00,42.0,37.0,30.14,NNE,20,3.0,-999.0,82,-99.99,,,-99.99,,2013-04-18 07:21:00,
2013-04-18 07:42:00,42.0,37.0,30.14,NNE,20,3.0,-999.0,82,-99.99,,,-99.99,,2013-04-18 07:42:00,
2013-04-18 07:52:00,42.0,37.0,30.14,NNE,20,3.0,-999.0,82,-99.99,,,-99.99,,2013-04-18 07:52:00,
2013-04-18 08:00:00,42.0,37.0,30.10,NNE,30,8.0,-999.0,82,-99.99,,,-99.99,,2013-04-18 08:00:00,
2013-04-18 08:22:00,42.0,37.0,30.10,NNE,30,8.0,-999.0,82,-99.99,,,-99.99,,2013-04-18 08:22:00,
2013-04-18 08:31:00,42.0,37.0,30.10,NNE,30,8.0,-999.0,82,-99.99,,,-99.99,,2013-04-18 08:31:00,
2013-04-18 08:41:00,42.0,37.0,30.10,NNE,30,8.0,-999.0,82,-99.99,,,-99.99,,2013-04-18 08:41:00,
2013-04-18 08:51:00,42.0,37.0,30.10,NNE,30,8.0,-999.0,82,-99.99,,,-99.99,,2013-04-18 08:51:00,
2013-04-18 09:00:00,42.0,38.0,30.07,NE,50,2.0,-999.0,86,-99.99,,,-99.99,,2013-04-18 09:00:00,
2013-04-18 09:22:00,42.0,38.0,30.07,NE,50,2.0,-999.0,86,-99.99,,,-99.99,,2013-04-18 09:22:00,
2013-04-18 09:32:00,42.0,38.0,30.07,NE,50,2.0,-999.0,86,-99.99,,,-99.99,,2013-04-18 09:32:00,
2013-04-18 09:42:00,42.0,38.0,30.07,NE,50,2.0,-999.0,86,-99.99,,,-99.99,,2013-04-18 09:42:00,
2013-04-18 09:52:00,42.0,38.0,30.07,NE,50,2.0,-999.0,86,-99.99,,,-99.99,,2013-04-18 09:52:00,
2013-04-18 10:00:00,41.0,38.0,30.03,NNE,20,5.0,-999.0,90,-99.99,,,-99.99,,2013-04-18 10:00:00,
2013-04-18 10:22:00,41.0,38.0,30.03,NNE,20,5.0,-999.0,90,-99.99,,,-99.99,,2013-04-18 10:22:00,
2013-04-18 10:32:00,41.0,38.0,30.03,NNE,20,5.0,-999.0,90,-99.99,,,-99.99,,2013-04-18 10:32:00,
2013-04-18 10:42:00,41.0,38.0,30.03,NNE,20,5.0,-999.0,90,-99.99,,,-99.99,,2013-04-18 10:42:00,
2013-04-18 10:52:00,41.0,38.0,30.03,NNE,20,5.0,-999.0,90,-99.99,,,-99.99,,2013-04-18 10:52:00,
2013-04-18 11:00:00,41.0,38.0,30.02,NNE,20,9.0,-999.0,88,-99.99,,,-99.99,,2013-04-18 11:00:00,
2013-04-18 11:21:00,41.0,38.0,30.02,NNE,20,9.0,-999.0,88,-99.99,,,-99.99,,2013-04-18 11:21:00,
2013-04-18 11:32:00,41.0,38.0,30.02,NNE,20,9.0,-999.0,88,-99.99,,,-99.99,,2013-04-18 11:32:00,
2013-04-18 11:42:00,41.0,38.0,30.02,NNE,20,9.0,-999.0,88,-99.99,,,-99.99,,2013-04-18 11:42:00,
2013-04-18 11:52:00,41.0,38.0,30.02,NNE,20,9.0,-999.0,88,-99.99,,,-99.99,,2013-04-18 11:52:00,
2013-04-18 12:00:00,42.0,38.0,30.00,NNE,20,9.0,-999.0,86,-99.99,,,-99.99,,2013-04-18 12:00:00,
2013-04-18 12:21:00,42.0,38.0,30.00,NNE,20,9.0,-999.0,86,-99.99,,,-99.99,,2013-04-18 12:21:00,
2013-04-18 12:32:00,42.0,38.0,30.00,NNE,20,9.0,-999.0,86,-99.99,,,-99.99,,2013-04-18 12:32:00,
2013-04-18 12:41:00,42.0,38.0,30.00,NNE,20,9.0,-999.0,86,-99.99,,,-99.99,,2013-04-18 12:41:00,
2013-04-18 12:52:00,42.0,38.0,30.00,NNE,20,9.0,-999.0,86,-99.99,,,-99.99,,2013-04-18 12:52:00,
2013-04-18 13:00:00,41.0,38.0,29.96,NE,40,17.0,-999.0,89,-99.99,,,-99.99,,2013-04-18 13:00:00,
2013-04-18 13:21:00,41.0,38.0,29.96,NE,40,17.0,-999.0,89,-99.99,,,-99.99,,2013-04-18 13:21:00,
2013-04-18 13:32:00,41.0,38.0,29.96,NE,40,17.0,-999.0,89,-99.99,,,-99.99,,2013-04-18 13:32:00,
2013-04-18 13:41:00,41.0,38.0,29.96,NE,40,17.0,-999.0,89,-99.99,,,-99.99,,2013-04-18 13:41:00,
2013-04-18 13:52:00,41.0,38.0,29.96,NE,40,17.0,-999.0,89,-99.99,,,-99.99,,2013-04-18 13:52:00,
2013-04-18 14:00:00,40.0,38.0,29.91,NE,40,13.0,-999.0,92,-99.99,,,-99.99,,2013-04-18 14:00:00,
2013-04-18 14:21:00,40.0,38.0,29.91,NE,40,13.0,-999.0,92,-99.99,,,-99.99,,2013-04-18 14:21:00,
2013-04-18 14:31:00,40.0,38.0,29.91,NE,40,13.0,-999.0,92,-99.99,,,-99.99,,2013-04-18 14:31:00,
2013-04-18 14:42:00,40.0,38.0,29.91,NE,40,13.0,-999.0,92,-99.99,,,-99.99,,2013-04-18 14:42:00,
2013-04-18 14:52:00,40.0,38.0,29.91,NE,40,13.0,-999.0,92,-99.99,,,-99.99,,2013-04-18 14:52:00,
2013-04-18 15:00:00,40.0,38.0,29.90,NE,50,18.0,-999.0,91,-99.99,,,-99.99,,2013-04-18 15:00:00,
2013-04-18 15:22:00,40.0,38.0,29.90,NE,50,18.0,-999.0,91,-99.99,,,-99.99,,2013-04-18 15:22:00,
2013-04-18 15:33:00,40.0,38.0,29.90,NE,50,18.0,-999.0,91,-99.99,,,-99.99,,2013-04-18 15:33:00,
2013-04-18 15:42:00,40.0,38.0,29.90,NE,50,18.0,-999.0,91,-99.99,,,-99.99,,2013-04-18 15:42:00,
2013-04-18 15:52:00,40.0,38.0,29.90,NE,50,18.0,-999.0,91,-99.99,,,-99.99,,2013-04-18 15:52:00,
2013-04-18 16:00:00,41.0,39.0,29.88,NE,50,16.0,-999.0,91,-99.99,,,-99.99,,2013-04-18 16:00:00,
2013-04-18 16:22:00,41.0,39.0,29.88,NE,50,16.0,-999.0,91,-99.99,,,-99.99,,2013-04-18 16:22:00,
2013-04-18 16:32:00,41.0,39.0,29.88,NE,50,16.0,-999.0,91,-99.99,,,-99.99,,2013-04-18 16:32:00,
2013-04-18 16:42:00,41.0,39.0,29.88,NE,50,16.0,-999.0,91,-99.99,,,-99.99,,2013-04-18 16:42:00,
2013-04-18 16:52:00,41.0,39.0,29.88,NE,50,16.0,-999.0,91,-99.99,,,-99.99,,2013-04-18 16:52:00,
2013-04-18 17:21:00,41.0,39.0,29.84,ENE,70,18.0,-999.0,91,-99.99,,,-99.99,,2013-04-18 17:21:00,
2013-04-18 17:32:00,41.0,39.0,29.84,ENE,70,18.0,-999.0,91,-99.99,,,-99.99,,2013-04-18 17:32:00,
2013-04-18 18:00:00,45.0,42.0,29.80,ENE,60,20.0,-999.0,88,-99.99,,,-99.99,,2013-04-18 18:00:00,
2013-04-18 18:22:00,45.0,42.0,29.80,ENE,60,20.0,-999.0,88,-99.99,,,-99.99,,2013-04-18 18:22:00,
2013-04-18 18:32:00,45.0,42.0,29.80,ENE,60,20.0,-999.0,88,-99.99,,,-99.99,,2013-04-18 18:32:00,
2013-04-18 18:42:00,45.0,42.0,29.80,ENE,60,20.0,-999.0,88,-99.99,,,-99.99,,2013-04-18 18:42:00,
2013-04-18 18:52:00,45.0,42.0,29.80,ENE,60,20.0,-999.0,88,-99.99,,,-99.99,,2013-04-18 18:52:00,
2013-04-18 19:00:00,53.0,46.0,29.77,East,100,6.0,-999.0,75,-99.99,,,-99.99,,2013-04-18 19:00:00,
2013-04-18 19:21:00,53.0,46.0,29.77,East,100,6.0,-999.0,75,-99.99,,,-99.99,,2013-04-18 19:21:00,
2013-04-18 19:31:00,53.0,46.0,29.77,East,100,6.0,-999.0,75,-99.99,,,-99.99,,2013-04-18 19:31:00,
2013-04-18 19:41:00,53.0,46.0,29.77,East,100,6.0,-999.0,75,-99.99,,,-99.99,,2013-04-18 19:41:00,
2013-04-18 19:52:00,53.0,46.0,29.77,East,100,6.0,-999.0,75,-99.99,,,-99.99,,2013-04-18 19:52:00,
2013-04-18 20:00:00,54.0,47.0,29.72,East,100,6.0,-999.0,75,-99.99,,,-99.99,,2013-04-18 20:00:00,
2013-04-18 20:22:00,54.0,47.0,29.72,East,100,6.0,-999.0,75,-99.99,,,-99.99,,2013-04-18 20:22:00,
2013-04-18 20:32:00,54.0,47.0,29.72,East,100,6.0,-999.0,75,-99.99,,,-99.99,,2013-04-18 20:32:00,
2013-04-18 20:42:00,54.0,47.0,29.72,East,100,6.0,-999.0,75,-99.99,,,-99.99,,2013-04-18 20:42:00,
2013-04-18 20:51:00,54.0,47.0,29.72,East,100,6.0,-999.0,75,-99.99,,,-99.99,,2013-04-18 20:51:00,
2013-04-18 21:00:00,56.0,48.0,29.69,East,80,5.0,-999.0,74,-99.99,,,-99.99,,2013-04-18 21:00:00,
2013-04-18 21:21:00,56.0,48.0,29.69,East,80,5.0,-999.0,74,-99.99,,,-99.99,,2013-04-18 21:21:00,
2013-04-18 21:32:00,56.0,48.0,29.69,East,80,5.0,-999.0,74,-99.99,,,-99.99,,2013-04-18 21:32:00,
2013-04-18 21:43:00,56.0,48.0,29.69,East,80,5.0,-999.0,74,-99.99,,,-99.99,,2013-04-18 21:43:00,
2013-04-18 21:52:00,56.0,48.0,29.69,East,80,5.0,-999.0,74,-99.99,,,-99.99,,2013-04-18 21:52:00,
2013-04-18 22:00:00,59.0,50.0,29.67,ESE,110,1.0,-999.0,71,-99.99,,,-99.99,,2013-04-18 22:00:00,
2013-04-18 22:22:00,59.0,50.0,29.67,ESE,110,1.0,-999.0,71,-99.99,,,-99.99,,2013-04-18 22:22:00,
2013-04-18 22:32:00,59.0,50.0,29.67,ESE,110,1.0,-999.0,71,-99.99,,,-99.99,,2013-04-18 22:32:00,
2013-04-18 22:41:00,59.0,50.0,29.67,ESE,110,1.0,-999.0,71,-99.99,,,-99.99,,2013-04-18 22:41:00,
2013-04-18 22:52:00,59.0,50.0,29.67,ESE,110,1.0,-999.0,71,-99.99,,,-99.99,,2013-04-18 22:52:00,
2013-04-18 23:00:00,58.0,50.0,29.66,ESE,110,5.0,-999.0,73,-99.99,,,-99.99,,2013-04-18 23:00:00,
2013-04-18 23:21:00,58.0,50.0,29.66,ESE,110,5.0,-999.0,73,-99.99,,,-99.99,,2013-04-18 23:21:00,
2013-04-18 23:32:00,58.0,50.0,29.66,ESE,110,5.0,-999.0,73,-99.99,,,-99.99,,2013-04-18 23:32:00,
2013-04-18 23:42:00,58.0,50.0,29.66,ESE,110,5.0,-999.0,73,-99.99,,,-99.99,,2013-04-18 23:42:00,
2013-04-18 23:52:00,58.0,50.0,29.66,ESE,110,5.0,-999.0,73,-99.99,,,-99.99,,2013-04-18 23:52:00,